sensor_id;sensor_type;location;lat;lon;timestamp;P1;durP1;ratioP1;P2;durP2;ratioP2
25057;SDS011;13057;50.978;11.034;2024-01-10T00:02:06;48.97;;;27.65;;
25057;SDS011;13057;50.978;11.034;2024-01-10T00:04:31;53.90;;;27.92;;
25057;SDS011;13057;50.978;11.034;2024-01-10T00:06:57;54.53;;;28.15;;
25057;SDS011;13057;50.978;11.034;2024-01-10T00:09:23;55.55;;;29.27;;
25057;SDS011;13057;50.978;11.034;2024-01-10T00:11:49;51.78;;;27.65;;
25057;SDS011;13057;50.978;11.034;2024-01-10T00:14:15;47.97;;;26.60;;
25057;SDS011;13057;50.978;11.034;2024-01-10T00:16:41;49.45;;;27.40;;
25057;SDS011;13057;50.978;11.034;2024-01-10T00:19:07;50.63;;;27.15;;
25057;SDS011;13057;50.978;11.034;2024-01-10T00:21:33;51.88;;;28.45;;
25057;SDS011;13057;50.978;11.034;2024-01-10T00:24:01;48.30;;;27.30;;
25057;SDS011;13057;50.978;11.034;2024-01-10T00:26:26;50.00;;;27.65;;
25057;SDS011;13057;50.978;11.034;2024-01-10T00:28:52;50.50;;;27.10;;
25057;SDS011;13057;50.978;11.034;2024-01-10T00:31:18;51.22;;;28.08;;
25057;SDS011;13057;50.978;11.034;2024-01-10T00:33:44;49.13;;;27.98;;
25057;SDS011;13057;50.978;11.034;2024-01-10T00:36:10;48.50;;;27.63;;
25057;SDS011;13057;50.978;11.034;2024-01-10T00:38:36;51.35;;;27.85;;
25057;SDS011;13057;50.978;11.034;2024-01-10T00:41:02;50.88;;;28.80;;
25057;SDS011;13057;50.978;11.034;2024-01-10T00:43:28;50.70;;;27.85;;
25057;SDS011;13057;50.978;11.034;2024-01-10T00:45:54;52.22;;;27.58;;
25057;SDS011;13057;50.978;11.034;2024-01-10T00:48:19;51.03;;;28.05;;
25057;SDS011;13057;50.978;11.034;2024-01-10T00:50:46;50.85;;;27.55;;
25057;SDS011;13057;50.978;11.034;2024-01-10T00:53:12;54.47;;;27.55;;
25057;SDS011;13057;50.978;11.034;2024-01-10T00:55:38;49.80;;;27.90;;
25057;SDS011;13057;50.978;11.034;2024-01-10T00:58:04;53.72;;;27.10;;
25057;SDS011;13057;50.978;11.034;2024-01-10T01:00:31;47.75;;;26.73;;
25057;SDS011;13057;50.978;11.034;2024-01-10T01:02:57;52.42;;;27.90;;
25057;SDS011;13057;50.978;11.034;2024-01-10T01:05:23;47.15;;;26.63;;
25057;SDS011;13057;50.978;11.034;2024-01-10T01:07:49;47.90;;;26.83;;
25057;SDS011;13057;50.978;11.034;2024-01-10T01:10:14;46.65;;;27.13;;
25057;SDS011;13057;50.978;11.034;2024-01-10T01:12:40;51.90;;;28.20;;
25057;SDS011;13057;50.978;11.034;2024-01-10T01:15:06;50.72;;;26.88;;
25057;SDS011;13057;50.978;11.034;2024-01-10T01:17:33;46.58;;;25.98;;
25057;SDS011;13057;50.978;11.034;2024-01-10T01:19:59;49.17;;;26.27;;
25057;SDS011;13057;50.978;11.034;2024-01-10T01:22:25;50.60;;;26.90;;
25057;SDS011;13057;50.978;11.034;2024-01-10T01:24:51;51.20;;;27.58;;
25057;SDS011;13057;50.978;11.034;2024-01-10T01:27:17;48.13;;;27.15;;
25057;SDS011;13057;50.978;11.034;2024-01-10T01:29:43;47.60;;;26.83;;
25057;SDS011;13057;50.978;11.034;2024-01-10T01:32:09;51.50;;;27.73;;
25057;SDS011;13057;50.978;11.034;2024-01-10T01:34:35;52.25;;;27.38;;
25057;SDS011;13057;50.978;11.034;2024-01-10T01:37:01;50.72;;;27.90;;
25057;SDS011;13057;50.978;11.034;2024-01-10T01:39:26;49.83;;;27.15;;
25057;SDS011;13057;50.978;11.034;2024-01-10T01:41:52;51.33;;;27.95;;
25057;SDS011;13057;50.978;11.034;2024-01-10T01:44:18;52.28;;;28.88;;
25057;SDS011;13057;50.978;11.034;2024-01-10T01:46:45;50.90;;;26.92;;
25057;SDS011;13057;50.978;11.034;2024-01-10T01:49:12;51.30;;;26.83;;
25057;SDS011;13057;50.978;11.034;2024-01-10T01:51:38;47.25;;;26.25;;
25057;SDS011;13057;50.978;11.034;2024-01-10T01:54:06;48.70;;;28.20;;
25057;SDS011;13057;50.978;11.034;2024-01-10T01:56:35;49.30;;;27.55;;
25057;SDS011;13057;50.978;11.034;2024-01-10T01:59:02;54.03;;;28.70;;
25057;SDS011;13057;50.978;11.034;2024-01-10T02:01:29;46.53;;;26.27;;
25057;SDS011;13057;50.978;11.034;2024-01-10T02:03:55;47.78;;;27.05;;
25057;SDS011;13057;50.978;11.034;2024-01-10T02:06:22;47.40;;;26.52;;
25057;SDS011;13057;50.978;11.034;2024-01-10T02:08:48;50.20;;;28.38;;
25057;SDS011;13057;50.978;11.034;2024-01-10T02:11:14;47.80;;;26.50;;
25057;SDS011;13057;50.978;11.034;2024-01-10T02:13:40;48.97;;;26.85;;
25057;SDS011;13057;50.978;11.034;2024-01-10T02:16:06;48.83;;;27.23;;
25057;SDS011;13057;50.978;11.034;2024-01-10T02:18:33;50.47;;;28.38;;
25057;SDS011;13057;50.978;11.034;2024-01-10T02:21:00;48.17;;;26.48;;
25057;SDS011;13057;50.978;11.034;2024-01-10T02:23:26;50.88;;;26.77;;
25057;SDS011;13057;50.978;11.034;2024-01-10T02:25:52;47.78;;;26.90;;
25057;SDS011;13057;50.978;11.034;2024-01-10T02:28:18;48.13;;;25.55;;
25057;SDS011;13057;50.978;11.034;2024-01-10T02:30:44;46.75;;;26.45;;
25057;SDS011;13057;50.978;11.034;2024-01-10T02:33:09;52.60;;;26.95;;
25057;SDS011;13057;50.978;11.034;2024-01-10T02:35:36;45.30;;;25.95;;
25057;SDS011;13057;50.978;11.034;2024-01-10T02:38:02;48.58;;;26.52;;
25057;SDS011;13057;50.978;11.034;2024-01-10T02:40:29;48.20;;;26.67;;
25057;SDS011;13057;50.978;11.034;2024-01-10T02:42:55;50.65;;;27.77;;
25057;SDS011;13057;50.978;11.034;2024-01-10T02:45:21;50.17;;;26.92;;
25057;SDS011;13057;50.978;11.034;2024-01-10T02:47:47;49.08;;;26.35;;
25057;SDS011;13057;50.978;11.034;2024-01-10T02:50:13;50.25;;;26.38;;
25057;SDS011;13057;50.978;11.034;2024-01-10T02:52:39;49.00;;;26.70;;
25057;SDS011;13057;50.978;11.034;2024-01-10T02:55:05;46.38;;;26.20;;
25057;SDS011;13057;50.978;11.034;2024-01-10T02:57:31;48.92;;;26.98;;
25057;SDS011;13057;50.978;11.034;2024-01-10T02:59:57;48.22;;;26.70;;
25057;SDS011;13057;50.978;11.034;2024-01-10T03:02:23;49.17;;;26.70;;
25057;SDS011;13057;50.978;11.034;2024-01-10T03:04:49;48.50;;;26.58;;
25057;SDS011;13057;50.978;11.034;2024-01-10T03:07:15;49.78;;;26.83;;
25057;SDS011;13057;50.978;11.034;2024-01-10T03:09:41;49.60;;;26.73;;
25057;SDS011;13057;50.978;11.034;2024-01-10T03:12:07;51.97;;;27.85;;
25057;SDS011;13057;50.978;11.034;2024-01-10T03:14:33;49.83;;;26.33;;
25057;SDS011;13057;50.978;11.034;2024-01-10T03:16:59;52.60;;;26.88;;
25057;SDS011;13057;50.978;11.034;2024-01-10T03:19:25;53.35;;;27.23;;
25057;SDS011;13057;50.978;11.034;2024-01-10T03:21:51;48.15;;;26.35;;
25057;SDS011;13057;50.978;11.034;2024-01-10T03:24:17;51.42;;;27.77;;
25057;SDS011;13057;50.978;11.034;2024-01-10T03:26:43;47.65;;;25.63;;
25057;SDS011;13057;50.978;11.034;2024-01-10T03:29:08;52.85;;;26.13;;
25057;SDS011;13057;50.978;11.034;2024-01-10T03:31:34;49.10;;;26.83;;
25057;SDS011;13057;50.978;11.034;2024-01-10T03:34:00;53.13;;;26.75;;
25057;SDS011;13057;50.978;11.034;2024-01-10T03:36:26;46.55;;;26.52;;
25057;SDS011;13057;50.978;11.034;2024-01-10T03:38:52;45.85;;;26.33;;
25057;SDS011;13057;50.978;11.034;2024-01-10T03:41:18;48.45;;;26.60;;
25057;SDS011;13057;50.978;11.034;2024-01-10T03:43:45;46.75;;;26.48;;
25057;SDS011;13057;50.978;11.034;2024-01-10T03:46:12;49.00;;;26.25;;
25057;SDS011;13057;50.978;11.034;2024-01-10T03:48:39;52.75;;;27.27;;
25057;SDS011;13057;50.978;11.034;2024-01-10T03:51:13;52.50;;;26.67;;
25057;SDS011;13057;50.978;11.034;2024-01-10T03:53:40;47.63;;;26.05;;
25057;SDS011;13057;50.978;11.034;2024-01-10T03:56:06;46.65;;;25.85;;
25057;SDS011;13057;50.978;11.034;2024-01-10T03:58:32;46.47;;;25.92;;
25057;SDS011;13057;50.978;11.034;2024-01-10T04:00:57;47.13;;;25.17;;
25057;SDS011;13057;50.978;11.034;2024-01-10T04:03:23;49.53;;;25.73;;
25057;SDS011;13057;50.978;11.034;2024-01-10T04:05:50;50.05;;;26.33;;
25057;SDS011;13057;50.978;11.034;2024-01-10T04:08:15;49.92;;;26.58;;
25057;SDS011;13057;50.978;11.034;2024-01-10T04:10:41;49.35;;;27.08;;
25057;SDS011;13057;50.978;11.034;2024-01-10T04:13:07;52.00;;;26.55;;
25057;SDS011;13057;50.978;11.034;2024-01-10T04:15:33;47.53;;;25.35;;
25057;SDS011;13057;50.978;11.034;2024-01-10T04:17:59;46.75;;;25.65;;
25057;SDS011;13057;50.978;11.034;2024-01-10T04:20:25;47.95;;;26.15;;
25057;SDS011;13057;50.978;11.034;2024-01-10T04:22:51;45.85;;;25.65;;
25057;SDS011;13057;50.978;11.034;2024-01-10T04:25:17;49.63;;;26.90;;
25057;SDS011;13057;50.978;11.034;2024-01-10T04:27:43;48.92;;;26.65;;
25057;SDS011;13057;50.978;11.034;2024-01-10T04:30:09;48.90;;;25.55;;
25057;SDS011;13057;50.978;11.034;2024-01-10T04:32:35;44.83;;;25.23;;
25057;SDS011;13057;50.978;11.034;2024-01-10T04:35:01;48.33;;;25.55;;
25057;SDS011;13057;50.978;11.034;2024-01-10T04:37:27;50.13;;;27.50;;
25057;SDS011;13057;50.978;11.034;2024-01-10T04:39:53;49.70;;;25.38;;
25057;SDS011;13057;50.978;11.034;2024-01-10T04:42:19;55.95;;;26.73;;
25057;SDS011;13057;50.978;11.034;2024-01-10T04:44:45;49.67;;;26.48;;
25057;SDS011;13057;50.978;11.034;2024-01-10T04:47:10;48.67;;;25.63;;
25057;SDS011;13057;50.978;11.034;2024-01-10T04:49:36;46.25;;;25.65;;
25057;SDS011;13057;50.978;11.034;2024-01-10T04:52:03;48.03;;;26.17;;
25057;SDS011;13057;50.978;11.034;2024-01-10T04:54:29;42.67;;;24.90;;
25057;SDS011;13057;50.978;11.034;2024-01-10T04:56:54;49.42;;;26.80;;
25057;SDS011;13057;50.978;11.034;2024-01-10T04:59:21;49.80;;;27.17;;
25057;SDS011;13057;50.978;11.034;2024-01-10T05:01:46;51.40;;;26.48;;
25057;SDS011;13057;50.978;11.034;2024-01-10T05:04:12;47.58;;;27.08;;
25057;SDS011;13057;50.978;11.034;2024-01-10T05:06:38;53.65;;;28.48;;
25057;SDS011;13057;50.978;11.034;2024-01-10T05:09:04;50.05;;;26.08;;
25057;SDS011;13057;50.978;11.034;2024-01-10T05:11:31;44.65;;;25.33;;
25057;SDS011;13057;50.978;11.034;2024-01-10T05:13:59;49.60;;;26.42;;
25057;SDS011;13057;50.978;11.034;2024-01-10T05:16:25;48.85;;;25.58;;
25057;SDS011;13057;50.978;11.034;2024-01-10T05:18:51;51.58;;;26.25;;
25057;SDS011;13057;50.978;11.034;2024-01-10T05:21:17;48.33;;;25.52;;
25057;SDS011;13057;50.978;11.034;2024-01-10T05:23:43;50.33;;;26.95;;
25057;SDS011;13057;50.978;11.034;2024-01-10T05:26:09;48.50;;;26.15;;
25057;SDS011;13057;50.978;11.034;2024-01-10T05:28:35;45.42;;;25.27;;
25057;SDS011;13057;50.978;11.034;2024-01-10T05:31:01;53.22;;;26.80;;
25057;SDS011;13057;50.978;11.034;2024-01-10T05:33:27;53.60;;;26.58;;
25057;SDS011;13057;50.978;11.034;2024-01-10T05:35:53;45.22;;;24.67;;
25057;SDS011;13057;50.978;11.034;2024-01-10T05:38:19;51.00;;;25.58;;
25057;SDS011;13057;50.978;11.034;2024-01-10T05:40:45;52.08;;;26.02;;
25057;SDS011;13057;50.978;11.034;2024-01-10T05:43:10;42.83;;;25.05;;
25057;SDS011;13057;50.978;11.034;2024-01-10T05:45:36;49.50;;;26.38;;
25057;SDS011;13057;50.978;11.034;2024-01-10T05:48:02;48.28;;;26.13;;
25057;SDS011;13057;50.978;11.034;2024-01-10T05:50:28;46.95;;;26.45;;
25057;SDS011;13057;50.978;11.034;2024-01-10T05:52:55;48.65;;;26.80;;
25057;SDS011;13057;50.978;11.034;2024-01-10T05:55:21;44.58;;;24.92;;
25057;SDS011;13057;50.978;11.034;2024-01-10T05:57:48;47.90;;;25.83;;
25057;SDS011;13057;50.978;11.034;2024-01-10T06:00:14;47.22;;;26.85;;
25057;SDS011;13057;50.978;11.034;2024-01-10T06:02:41;47.78;;;25.35;;
25057;SDS011;13057;50.978;11.034;2024-01-10T06:05:09;48.97;;;26.08;;
25057;SDS011;13057;50.978;11.034;2024-01-10T06:07:36;51.80;;;27.63;;
25057;SDS011;13057;50.978;11.034;2024-01-10T06:10:02;45.08;;;26.40;;
25057;SDS011;13057;50.978;11.034;2024-01-10T06:12:28;51.45;;;26.88;;
25057;SDS011;13057;50.978;11.034;2024-01-10T06:14:54;51.65;;;27.73;;
25057;SDS011;13057;50.978;11.034;2024-01-10T06:17:20;53.15;;;28.30;;
25057;SDS011;13057;50.978;11.034;2024-01-10T06:19:46;53.22;;;28.08;;
25057;SDS011;13057;50.978;11.034;2024-01-10T06:22:12;52.00;;;27.23;;
25057;SDS011;13057;50.978;11.034;2024-01-10T06:24:39;52.65;;;27.58;;
25057;SDS011;13057;50.978;11.034;2024-01-10T06:27:06;53.97;;;27.50;;
25057;SDS011;13057;50.978;11.034;2024-01-10T06:29:33;50.10;;;27.17;;
25057;SDS011;13057;50.978;11.034;2024-01-10T06:31:59;52.28;;;28.63;;
25057;SDS011;13057;50.978;11.034;2024-01-10T06:34:27;55.55;;;29.48;;
25057;SDS011;13057;50.978;11.034;2024-01-10T06:36:53;50.15;;;28.58;;
25057;SDS011;13057;50.978;11.034;2024-01-10T06:39:19;54.35;;;28.85;;
25057;SDS011;13057;50.978;11.034;2024-01-10T06:41:46;51.03;;;27.95;;
25057;SDS011;13057;50.978;11.034;2024-01-10T06:44:14;55.20;;;28.20;;
25057;SDS011;13057;50.978;11.034;2024-01-10T06:46:40;51.08;;;26.98;;
25057;SDS011;13057;50.978;11.034;2024-01-10T06:49:06;50.30;;;28.17;;
25057;SDS011;13057;50.978;11.034;2024-01-10T06:51:32;59.40;;;29.35;;
25057;SDS011;13057;50.978;11.034;2024-01-10T06:53:58;56.17;;;29.40;;
25057;SDS011;13057;50.978;11.034;2024-01-10T06:56:29;55.63;;;29.85;;
25057;SDS011;13057;50.978;11.034;2024-01-10T06:58:56;53.58;;;29.48;;
25057;SDS011;13057;50.978;11.034;2024-01-10T07:01:22;57.80;;;29.35;;
25057;SDS011;13057;50.978;11.034;2024-01-10T07:03:48;56.58;;;30.42;;
25057;SDS011;13057;50.978;11.034;2024-01-10T07:06:14;55.80;;;29.55;;
25057;SDS011;13057;50.978;11.034;2024-01-10T07:08:40;51.75;;;29.55;;
25057;SDS011;13057;50.978;11.034;2024-01-10T07:11:08;54.85;;;29.52;;
25057;SDS011;13057;50.978;11.034;2024-01-10T07:13:34;52.30;;;29.60;;
25057;SDS011;13057;50.978;11.034;2024-01-10T07:16:01;53.25;;;29.33;;
25057;SDS011;13057;50.978;11.034;2024-01-10T07:18:28;57.17;;;32.13;;
25057;SDS011;13057;50.978;11.034;2024-01-10T07:20:54;57.35;;;30.40;;
25057;SDS011;13057;50.978;11.034;2024-01-10T07:23:20;60.70;;;31.52;;
25057;SDS011;13057;50.978;11.034;2024-01-10T07:25:47;57.70;;;31.00;;
25057;SDS011;13057;50.978;11.034;2024-01-10T07:28:12;63.38;;;33.10;;
25057;SDS011;13057;50.978;11.034;2024-01-10T07:30:39;61.42;;;30.85;;
25057;SDS011;13057;50.978;11.034;2024-01-10T07:33:04;58.25;;;32.03;;
25057;SDS011;13057;50.978;11.034;2024-01-10T07:35:30;56.88;;;31.23;;
25057;SDS011;13057;50.978;11.034;2024-01-10T07:37:56;57.97;;;31.85;;
25057;SDS011;13057;50.978;11.034;2024-01-10T07:40:22;54.95;;;30.75;;
25057;SDS011;13057;50.978;11.034;2024-01-10T07:42:48;59.25;;;32.95;;
25057;SDS011;13057;50.978;11.034;2024-01-10T07:45:14;60.15;;;31.73;;
25057;SDS011;13057;50.978;11.034;2024-01-10T07:47:39;58.70;;;32.22;;
25057;SDS011;13057;50.978;11.034;2024-01-10T07:50:06;55.63;;;31.00;;
25057;SDS011;13057;50.978;11.034;2024-01-10T07:52:33;60.25;;;32.10;;
25057;SDS011;13057;50.978;11.034;2024-01-10T07:54:59;60.42;;;32.25;;
25057;SDS011;13057;50.978;11.034;2024-01-10T07:57:26;60.63;;;31.60;;
25057;SDS011;13057;50.978;11.034;2024-01-10T07:59:52;59.88;;;31.08;;
25057;SDS011;13057;50.978;11.034;2024-01-10T08:02:18;61.42;;;31.95;;
25057;SDS011;13057;50.978;11.034;2024-01-10T08:04:44;59.08;;;31.38;;
25057;SDS011;13057;50.978;11.034;2024-01-10T08:07:10;55.20;;;30.48;;
25057;SDS011;13057;50.978;11.034;2024-01-10T08:09:37;62.08;;;32.38;;
25057;SDS011;13057;50.978;11.034;2024-01-10T08:12:03;56.45;;;32.95;;
25057;SDS011;13057;50.978;11.034;2024-01-10T08:14:29;55.58;;;28.65;;
25057;SDS011;13057;50.978;11.034;2024-01-10T08:16:55;61.35;;;33.40;;
25057;SDS011;13057;50.978;11.034;2024-01-10T08:19:24;68.63;;;35.15;;
25057;SDS011;13057;50.978;11.034;2024-01-10T08:21:51;65.97;;;34.13;;
25057;SDS011;13057;50.978;11.034;2024-01-10T08:24:18;68.13;;;35.42;;
25057;SDS011;13057;50.978;11.034;2024-01-10T08:26:46;66.07;;;33.72;;
25057;SDS011;13057;50.978;11.034;2024-01-10T08:29:12;67.35;;;35.35;;
25057;SDS011;13057;50.978;11.034;2024-01-10T08:31:38;64.53;;;34.03;;
25057;SDS011;13057;50.978;11.034;2024-01-10T08:34:04;60.05;;;33.03;;
25057;SDS011;13057;50.978;11.034;2024-01-10T08:36:30;65.22;;;35.78;;
25057;SDS011;13057;50.978;11.034;2024-01-10T08:38:55;68.68;;;35.25;;
25057;SDS011;13057;50.978;11.034;2024-01-10T08:41:22;63.42;;;32.85;;
25057;SDS011;13057;50.978;11.034;2024-01-10T08:43:47;65.43;;;34.25;;
25057;SDS011;13057;50.978;11.034;2024-01-10T08:46:13;66.95;;;34.20;;
25057;SDS011;13057;50.978;11.034;2024-01-10T08:48:39;68.38;;;34.90;;
25057;SDS011;13057;50.978;11.034;2024-01-10T08:51:07;65.63;;;33.80;;
25057;SDS011;13057;50.978;11.034;2024-01-10T08:53:34;67.22;;;33.90;;
25057;SDS011;13057;50.978;11.034;2024-01-10T08:56:00;67.20;;;34.60;;
25057;SDS011;13057;50.978;11.034;2024-01-10T08:58:27;70.47;;;35.75;;
25057;SDS011;13057;50.978;11.034;2024-01-10T09:00:53;62.95;;;32.97;;
25057;SDS011;13057;50.978;11.034;2024-01-10T09:03:19;79.53;;;34.90;;
25057;SDS011;13057;50.978;11.034;2024-01-10T09:05:44;66.97;;;33.92;;
25057;SDS011;13057;50.978;11.034;2024-01-10T09:08:10;63.33;;;32.83;;
25057;SDS011;13057;50.978;11.034;2024-01-10T09:10:36;68.07;;;34.50;;
25057;SDS011;13057;50.978;11.034;2024-01-10T09:13:03;67.45;;;36.25;;
25057;SDS011;13057;50.978;11.034;2024-01-10T09:15:29;64.10;;;33.25;;
25057;SDS011;13057;50.978;11.034;2024-01-10T09:17:55;64.75;;;34.95;;
25057;SDS011;13057;50.978;11.034;2024-01-10T09:20:21;64.47;;;34.53;;
25057;SDS011;13057;50.978;11.034;2024-01-10T09:22:47;66.30;;;35.25;;
25057;SDS011;13057;50.978;11.034;2024-01-10T09:25:14;67.45;;;36.13;;
25057;SDS011;13057;50.978;11.034;2024-01-10T09:27:40;70.63;;;36.67;;
25057;SDS011;13057;50.978;11.034;2024-01-10T09:30:09;64.35;;;34.75;;
25057;SDS011;13057;50.978;11.034;2024-01-10T09:32:35;53.88;;;27.75;;
25057;SDS011;13057;50.978;11.034;2024-01-10T09:35:02;63.17;;;33.97;;
25057;SDS011;13057;50.978;11.034;2024-01-10T09:37:29;65.75;;;34.53;;
25057;SDS011;13057;50.978;11.034;2024-01-10T09:39:55;61.55;;;34.85;;
25057;SDS011;13057;50.978;11.034;2024-01-10T09:42:21;61.53;;;33.60;;
25057;SDS011;13057;50.978;11.034;2024-01-10T09:44:50;69.03;;;36.65;;
25057;SDS011;13057;50.978;11.034;2024-01-10T09:47:17;66.05;;;34.60;;
25057;SDS011;13057;50.978;11.034;2024-01-10T09:49:45;65.60;;;35.17;;
25057;SDS011;13057;50.978;11.034;2024-01-10T09:52:23;65.75;;;35.13;;
25057;SDS011;13057;50.978;11.034;2024-01-10T09:54:53;64.30;;;35.38;;
25057;SDS011;13057;50.978;11.034;2024-01-10T09:57:23;64.03;;;34.80;;
25057;SDS011;13057;50.978;11.034;2024-01-10T09:59:50;67.43;;;35.03;;
25057;SDS011;13057;50.978;11.034;2024-01-10T10:02:17;66.28;;;34.15;;
25057;SDS011;13057;50.978;11.034;2024-01-10T10:04:48;75.07;;;35.70;;
25057;SDS011;13057;50.978;11.034;2024-01-10T10:07:26;66.18;;;35.38;;
25057;SDS011;13057;50.978;11.034;2024-01-10T10:09:52;60.97;;;35.22;;
25057;SDS011;13057;50.978;11.034;2024-01-10T10:12:21;65.82;;;35.03;;
25057;SDS011;13057;50.978;11.034;2024-01-10T10:14:49;65.57;;;34.33;;
25057;SDS011;13057;50.978;11.034;2024-01-10T10:17:15;65.80;;;35.20;;
25057;SDS011;13057;50.978;11.034;2024-01-10T10:19:41;64.30;;;29.85;;
25057;SDS011;13057;50.978;11.034;2024-01-10T10:22:08;63.60;;;31.80;;
25057;SDS011;13057;50.978;11.034;2024-01-10T10:24:35;71.45;;;37.42;;
25057;SDS011;13057;50.978;11.034;2024-01-10T10:27:00;72.32;;;36.33;;
25057;SDS011;13057;50.978;11.034;2024-01-10T10:29:27;62.53;;;32.58;;
25057;SDS011;13057;50.978;11.034;2024-01-10T10:31:52;66.80;;;32.10;;
25057;SDS011;13057;50.978;11.034;2024-01-10T10:34:20;70.60;;;36.42;;
25057;SDS011;13057;50.978;11.034;2024-01-10T10:36:48;69.28;;;36.75;;
25057;SDS011;13057;50.978;11.034;2024-01-10T10:39:17;61.17;;;34.50;;
25057;SDS011;13057;50.978;11.034;2024-01-10T10:41:43;65.45;;;35.30;;
25057;SDS011;13057;50.978;11.034;2024-01-10T10:44:12;64.57;;;35.30;;
25057;SDS011;13057;50.978;11.034;2024-01-10T10:46:46;65.32;;;35.67;;
25057;SDS011;13057;50.978;11.034;2024-01-10T10:49:16;64.55;;;34.95;;
25057;SDS011;13057;50.978;11.034;2024-01-10T10:51:47;65.13;;;34.05;;
25057;SDS011;13057;50.978;11.034;2024-01-10T10:54:13;67.40;;;35.97;;
25057;SDS011;13057;50.978;11.034;2024-01-10T10:56:41;66.47;;;34.40;;
25057;SDS011;13057;50.978;11.034;2024-01-10T10:59:10;67.43;;;36.03;;
25057;SDS011;13057;50.978;11.034;2024-01-10T11:01:38;60.42;;;34.20;;
25057;SDS011;13057;50.978;11.034;2024-01-10T11:04:05;68.10;;;38.03;;
25057;SDS011;13057;50.978;11.034;2024-01-10T11:06:32;69.45;;;36.30;;
25057;SDS011;13057;50.978;11.034;2024-01-10T11:09:00;71.43;;;38.53;;
25057;SDS011;13057;50.978;11.034;2024-01-10T11:11:37;68.45;;;37.55;;
25057;SDS011;13057;50.978;11.034;2024-01-10T11:14:21;68.70;;;37.72;;
25057;SDS011;13057;50.978;11.034;2024-01-10T11:17:08;70.78;;;37.85;;
25057;SDS011;13057;50.978;11.034;2024-01-10T11:22:48;73.20;;;38.20;;
25057;SDS011;13057;50.978;11.034;2024-01-10T11:25:30;68.57;;;36.47;;
25057;SDS011;13057;50.978;11.034;2024-01-10T11:27:57;66.35;;;37.17;;
25057;SDS011;13057;50.978;11.034;2024-01-10T11:30:34;67.95;;;37.20;;
25057;SDS011;13057;50.978;11.034;2024-01-10T11:33:23;70.05;;;37.15;;
25057;SDS011;13057;50.978;11.034;2024-01-10T11:38:32;68.00;;;37.72;;
25057;SDS011;13057;50.978;11.034;2024-01-10T11:40:58;77.38;;;37.55;;
25057;SDS011;13057;50.978;11.034;2024-01-10T11:43:25;70.30;;;38.50;;
25057;SDS011;13057;50.978;11.034;2024-01-10T11:45:51;70.93;;;36.00;;
25057;SDS011;13057;50.978;11.034;2024-01-10T11:48:26;70.68;;;35.97;;
25057;SDS011;13057;50.978;11.034;2024-01-10T11:50:52;69.88;;;35.55;;
25057;SDS011;13057;50.978;11.034;2024-01-10T11:56:08;72.15;;;36.47;;
25057;SDS011;13057;50.978;11.034;2024-01-10T12:01:29;69.38;;;35.88;;
25057;SDS011;13057;50.978;11.034;2024-01-10T12:03:55;77.07;;;36.72;;
25057;SDS011;13057;50.978;11.034;2024-01-10T12:06:23;68.28;;;36.55;;
25057;SDS011;13057;50.978;11.034;2024-01-10T12:08:50;68.47;;;36.65;;
25057;SDS011;13057;50.978;11.034;2024-01-10T12:11:19;66.45;;;37.95;;
25057;SDS011;13057;50.978;11.034;2024-01-10T12:13:45;71.47;;;37.08;;
25057;SDS011;13057;50.978;11.034;2024-01-10T12:16:12;81.78;;;37.28;;
25057;SDS011;13057;50.978;11.034;2024-01-10T12:18:39;70.38;;;37.75;;
25057;SDS011;13057;50.978;11.034;2024-01-10T12:21:05;77.90;;;38.22;;
25057;SDS011;13057;50.978;11.034;2024-01-10T12:23:34;76.65;;;38.80;;
25057;SDS011;13057;50.978;11.034;2024-01-10T12:26:02;71.63;;;37.53;;
25057;SDS011;13057;50.978;11.034;2024-01-10T12:28:32;73.15;;;38.53;;
25057;SDS011;13057;50.978;11.034;2024-01-10T12:30:59;74.53;;;37.30;;
25057;SDS011;13057;50.978;11.034;2024-01-10T12:33:25;73.35;;;38.63;;
25057;SDS011;13057;50.978;11.034;2024-01-10T12:38:35;75.38;;;39.05;;
25057;SDS011;13057;50.978;11.034;2024-01-10T12:41:02;76.07;;;38.67;;
25057;SDS011;13057;50.978;11.034;2024-01-10T12:43:29;70.63;;;37.47;;
25057;SDS011;13057;50.978;11.034;2024-01-10T12:46:02;68.20;;;38.33;;
25057;SDS011;13057;50.978;11.034;2024-01-10T12:48:36;71.50;;;35.47;;
25057;SDS011;13057;50.978;11.034;2024-01-10T12:51:03;76.32;;;38.85;;
25057;SDS011;13057;50.978;11.034;2024-01-10T12:53:33;71.95;;;38.42;;
25057;SDS011;13057;50.978;11.034;2024-01-10T12:56:01;70.93;;;37.42;;
25057;SDS011;13057;50.978;11.034;2024-01-10T12:58:30;71.82;;;38.40;;
25057;SDS011;13057;50.978;11.034;2024-01-10T13:00:58;75.57;;;38.40;;
25057;SDS011;13057;50.978;11.034;2024-01-10T13:03:24;75.45;;;39.92;;
25057;SDS011;13057;50.978;11.034;2024-01-10T13:05:50;70.65;;;34.95;;
25057;SDS011;13057;50.978;11.034;2024-01-10T13:08:17;72.97;;;38.60;;
25057;SDS011;13057;50.978;11.034;2024-01-10T13:10:44;74.28;;;38.17;;
25057;SDS011;13057;50.978;11.034;2024-01-10T13:13:12;72.82;;;37.90;;
25057;SDS011;13057;50.978;11.034;2024-01-10T13:15:39;74.20;;;38.65;;
25057;SDS011;13057;50.978;11.034;2024-01-10T13:18:05;74.45;;;38.20;;
25057;SDS011;13057;50.978;11.034;2024-01-10T13:20:32;70.05;;;37.97;;
25057;SDS011;13057;50.978;11.034;2024-01-10T13:22:58;74.55;;;38.63;;
25057;SDS011;13057;50.978;11.034;2024-01-10T13:25:23;72.03;;;37.58;;
25057;SDS011;13057;50.978;11.034;2024-01-10T13:27:50;65.22;;;35.25;;
25057;SDS011;13057;50.978;11.034;2024-01-10T13:30:16;69.07;;;37.58;;
25057;SDS011;13057;50.978;11.034;2024-01-10T13:32:43;69.82;;;37.83;;
25057;SDS011;13057;50.978;11.034;2024-01-10T13:35:09;68.80;;;37.15;;
25057;SDS011;13057;50.978;11.034;2024-01-10T13:37:35;68.60;;;36.63;;
25057;SDS011;13057;50.978;11.034;2024-01-10T13:40:02;71.32;;;38.22;;
25057;SDS011;13057;50.978;11.034;2024-01-10T13:45:02;75.72;;;39.58;;
25057;SDS011;13057;50.978;11.034;2024-01-10T13:47:30;73.72;;;38.35;;
25057;SDS011;13057;50.978;11.034;2024-01-10T13:49:58;73.03;;;40.13;;
25057;SDS011;13057;50.978;11.034;2024-01-10T13:52:24;78.22;;;39.88;;
25057;SDS011;13057;50.978;11.034;2024-01-10T13:54:49;69.32;;;38.30;;
25057;SDS011;13057;50.978;11.034;2024-01-10T13:57:15;72.75;;;39.05;;
25057;SDS011;13057;50.978;11.034;2024-01-10T13:59:41;70.75;;;38.65;;
25057;SDS011;13057;50.978;11.034;2024-01-10T14:02:07;75.13;;;37.90;;
25057;SDS011;13057;50.978;11.034;2024-01-10T14:04:33;79.68;;;38.15;;
25057;SDS011;13057;50.978;11.034;2024-01-10T14:06:59;72.88;;;38.78;;
25057;SDS011;13057;50.978;11.034;2024-01-10T14:09:25;73.72;;;40.03;;
25057;SDS011;13057;50.978;11.034;2024-01-10T14:11:51;86.95;;;46.50;;
25057;SDS011;13057;50.978;11.034;2024-01-10T14:14:17;74.43;;;39.53;;
25057;SDS011;13057;50.978;11.034;2024-01-10T14:16:43;77.78;;;41.58;;
25057;SDS011;13057;50.978;11.034;2024-01-10T14:19:09;81.90;;;41.67;;
25057;SDS011;13057;50.978;11.034;2024-01-10T14:21:35;75.25;;;41.03;;
25057;SDS011;13057;50.978;11.034;2024-01-10T14:24:01;75.47;;;40.35;;